sensor_id;sensor_type;location;lat;lon;timestamp;pressure;altitude;pressure_sealevel;temperature;humidity
69245;BME280;56357;52.304;4.870;2024-01-30T00:02:15;102755.31;;;17.67;54.00
69245;BME280;56357;52.304;4.870;2024-01-30T00:04:42;102763.09;;;17.65;53.82
69245;BME280;56357;52.304;4.870;2024-01-30T00:07:08;102754.81;;;17.70;53.57
69245;BME280;56357;52.304;4.870;2024-01-30T00:09:34;102758.56;;;17.64;53.54
69245;BME280;56357;52.304;4.870;2024-01-30T00:12:01;102758.56;;;17.64;53.81
69245;BME280;56357;52.304;4.870;2024-01-30T00:14:27;102745.16;;;17.66;53.39
69245;BME280;56357;52.304;4.870;2024-01-30T00:16:53;102741.13;;;17.62;53.63
69245;BME280;56357;52.304;4.870;2024-01-30T00:19:20;102744.53;;;17.64;53.46
69245;BME280;56357;52.304;4.870;2024-01-30T00:21:46;102751.69;;;17.60;53.08
69245;BME280;56357;52.304;4.870;2024-01-30T00:24:12;102744.78;;;17.63;53.79
69245;BME280;56357;52.304;4.870;2024-01-30T00:26:39;102746.56;;;17.57;53.44
69245;BME280;56357;52.304;4.870;2024-01-30T00:29:05;102752.63;;;17.54;53.81
69245;BME280;56357;52.304;4.870;2024-01-30T00:31:32;102749.81;;;17.54;53.92
69245;BME280;56357;52.304;4.870;2024-01-30T00:33:58;102752.00;;;17.52;53.34
69245;BME280;56357;52.304;4.870;2024-01-30T00:36:24;102744.84;;;17.56;53.80
69245;BME280;56357;52.304;4.870;2024-01-30T00:38:51;102740.97;;;17.57;53.10
69245;BME280;56357;52.304;4.870;2024-01-30T00:41:18;102753.97;;;17.52;53.50
69245;BME280;56357;52.304;4.870;2024-01-30T00:43:44;102740.16;;;17.50;53.52
69245;BME280;56357;52.304;4.870;2024-01-30T00:46:11;102745.34;;;17.47;53.59
69245;BME280;56357;52.304;4.870;2024-01-30T00:48:37;102738.91;;;17.46;53.97
69245;BME280;56357;52.304;4.870;2024-01-30T00:51:03;102739.09;;;17.45;53.40
69245;BME280;56357;52.304;4.870;2024-01-30T00:53:30;102738.91;;;17.46;53.52
69245;BME280;56357;52.304;4.870;2024-01-30T00:55:56;102734.56;;;17.50;53.08
69245;BME280;56357;52.304;4.870;2024-01-30T00:58:22;102730.69;;;17.51;53.08
69245;BME280;56357;52.304;4.870;2024-01-30T01:00:49;102733.06;;;17.48;53.61
69245;BME280;56357;52.304;4.870;2024-01-30T01:03:15;102744.94;;;17.50;53.06
69245;BME280;56357;52.304;4.870;2024-01-30T01:05:41;102742.13;;;17.50;53.52
69245;BME280;56357;52.304;4.870;2024-01-30T01:08:08;102743.41;;;17.47;53.41
69245;BME280;56357;52.304;4.870;2024-01-30T01:10:34;102751.19;;;17.45;53.23
69245;BME280;56357;52.304;4.870;2024-01-30T01:13:01;102747.25;;;17.53;53.32
69245;BME280;56357;52.304;4.870;2024-01-30T01:15:27;102746.69;;;17.44;53.13
69245;BME280;56357;52.304;4.870;2024-01-30T01:17:54;102735.91;;;17.41;53.14
69245;BME280;56357;52.304;4.870;2024-01-30T01:20:20;102739.81;;;17.40;53.27
69245;BME280;56357;52.304;4.870;2024-01-30T01:22:46;102745.03;;;17.36;52.92
69245;BME280;56357;52.304;4.870;2024-01-30T01:25:13;102755.13;;;17.37;53.32
69245;BME280;56357;52.304;4.870;2024-01-30T01:27:40;102753.34;;;17.43;53.02
69245;BME280;56357;52.304;4.870;2024-01-30T01:30:09;102745.81;;;17.44;53.10
69245;BME280;56357;52.304;4.870;2024-01-30T01:32:34;102734.66;;;17.37;53.32
69245;BME280;56357;52.304;4.870;2024-01-30T01:35:01;102747.59;;;17.38;52.74
69245;BME280;56357;52.304;4.870;2024-01-30T01:37:30;102732.66;;;17.44;52.85
69245;BME280;56357;52.304;4.870;2024-01-30T01:39:57;102723.00;;;17.40;52.84
69245;BME280;56357;52.304;4.870;2024-01-30T01:42:23;102739.88;;;17.33;53.42
69245;BME280;56357;52.304;4.870;2024-01-30T01:44:50;102736.63;;;17.36;53.06
69245;BME280;56357;52.304;4.870;2024-01-30T01:47:16;102730.41;;;17.34;53.01
69245;BME280;56357;52.304;4.870;2024-01-30T01:49:43;102732.09;;;17.35;53.05
69245;BME280;56357;52.304;4.870;2024-01-30T01:52:09;102707.91;;;17.41;52.93
69245;BME280;56357;52.304;4.870;2024-01-30T01:54:36;102706.75;;;17.30;53.14
69245;BME280;56357;52.304;4.870;2024-01-30T01:57:03;102703.69;;;17.32;53.00
69245;BME280;56357;52.304;4.870;2024-01-30T01:59:30;102702.44;;;17.28;53.27
69245;BME280;56357;52.304;4.870;2024-01-30T02:01:56;102695.13;;;17.27;52.98
69245;BME280;56357;52.304;4.870;2024-01-30T02:04:23;102704.78;;;17.31;52.68
69245;BME280;56357;52.304;4.870;2024-01-30T02:06:49;102701.97;;;17.31;52.90
69245;BME280;56357;52.304;4.870;2024-01-30T02:09:16;102697.31;;;17.25;52.80
69245;BME280;56357;52.304;4.870;2024-01-30T02:11:42;102707.38;;;17.32;52.78
69245;BME280;56357;52.304;4.870;2024-01-30T02:14:08;102716.84;;;17.31;52.77
69245;BME280;56357;52.304;4.870;2024-01-30T02:16:35;102720.41;;;17.38;52.66
69245;BME280;56357;52.304;4.870;2024-01-30T02:19:01;102720.38;;;17.45;52.51
69245;BME280;56357;52.304;4.870;2024-01-30T02:21:28;102714.53;;;17.47;52.44
69245;BME280;56357;52.304;4.870;2024-01-30T02:23:54;102696.69;;;17.41;52.37
69245;BME280;56357;52.304;4.870;2024-01-30T02:26:21;102708.38;;;17.38;52.50
69245;BME280;56357;52.304;4.870;2024-01-30T02:28:47;102701.06;;;17.37;52.99
69245;BME280;56357;52.304;4.870;2024-01-30T02:31:14;102715.28;;;17.35;52.75
69245;BME280;56357;52.304;4.870;2024-01-30T02:33:40;102711.63;;;17.35;52.84
69245;BME280;56357;52.304;4.870;2024-01-30T02:36:07;102703.69;;;17.32;52.57
69245;BME280;56357;52.304;4.870;2024-01-30T02:38:33;102691.50;;;17.45;52.81
69245;BME280;56357;52.304;4.870;2024-01-30T02:40:59;102693.38;;;17.32;53.14
69245;BME280;56357;52.304;4.870;2024-01-30T02:43:26;102697.97;;;17.45;52.65
69245;BME280;56357;52.304;4.870;2024-01-30T02:45:52;102691.84;;;17.55;52.61
69245;BME280;56357;52.304;4.870;2024-01-30T02:48:18;102687.50;;;17.59;52.55
69245;BME280;56357;52.304;4.870;2024-01-30T02:50:45;102684.75;;;17.52;52.35
69245;BME280;56357;52.304;4.870;2024-01-30T02:53:12;102687.00;;;17.62;52.35
69245;BME280;56357;52.304;4.870;2024-01-30T02:55:38;102692.94;;;17.72;52.14
69245;BME280;56357;52.304;4.870;2024-01-30T02:58:04;102701.09;;;17.91;51.86
69245;BME280;56357;52.304;4.870;2024-01-30T03:00:31;102687.06;;;18.09;51.35
69245;BME280;56357;52.304;4.870;2024-01-30T03:02:58;102688.09;;;17.97;51.42
69245;BME280;56357;52.304;4.870;2024-01-30T03:05:24;102678.81;;;17.96;51.58
69245;BME280;56357;52.304;4.870;2024-01-30T03:07:50;102667.72;;;18.19;51.46
69245;BME280;56357;52.304;4.870;2024-01-30T03:10:17;102660.03;;;18.15;51.03
69245;BME280;56357;52.304;4.870;2024-01-30T03:12:43;102653.13;;;17.99;51.17
69245;BME280;56357;52.304;4.870;2024-01-30T03:15:10;102663.63;;;18.04;51.98
69245;BME280;56357;52.304;4.870;2024-01-30T03:17:36;102655.16;;;18.22;50.80
69245;BME280;56357;52.304;4.870;2024-01-30T03:20:03;102650.50;;;18.16;51.29
69245;BME280;56357;52.304;4.870;2024-01-30T03:22:31;102646.91;;;17.97;51.55
69245;BME280;56357;52.304;4.870;2024-01-30T03:24:57;102644.34;;;17.96;51.52
69245;BME280;56357;52.304;4.870;2024-01-30T03:27:24;102647.38;;;18.24;50.93
69245;BME280;56357;52.304;4.870;2024-01-30T03:29:50;102657.06;;;18.10;51.17
69245;BME280;56357;52.304;4.870;2024-01-30T03:32:19;102652.63;;;18.20;50.77
69245;BME280;56357;52.304;4.870;2024-01-30T03:34:45;102648.75;;;18.33;50.66
69245;BME280;56357;52.304;4.870;2024-01-30T03:37:11;102654.59;;;18.32;50.53
69245;BME280;56357;52.304;4.870;2024-01-30T03:39:38;102649.72;;;18.39;51.04
69245;BME280;56357;52.304;4.870;2024-01-30T03:42:04;102649.00;;;18.02;51.40
69245;BME280;56357;52.304;4.870;2024-01-30T03:44:30;102652.53;;;18.39;50.75
69245;BME280;56357;52.304;4.870;2024-01-30T03:46:57;102647.00;;;18.20;51.30
69245;BME280;56357;52.304;4.870;2024-01-30T03:49:23;102646.50;;;18.23;50.94
69245;BME280;56357;52.304;4.870;2024-01-30T03:51:49;102654.31;;;18.21;50.96
69245;BME280;56357;52.304;4.870;2024-01-30T03:54:16;102649.69;;;18.27;50.87
69245;BME280;56357;52.304;4.870;2024-01-30T03:56:42;102655.09;;;18.28;51.33
69245;BME280;56357;52.304;4.870;2024-01-30T03:59:08;102647.13;;;18.25;51.39
69245;BME280;56357;52.304;4.870;2024-01-30T04:01:35;102647.09;;;18.14;51.09
69245;BME280;56357;52.304;4.870;2024-01-30T04:04:01;102634.72;;;18.33;50.86
69245;BME280;56357;52.304;4.870;2024-01-30T04:06:27;102625.53;;;18.14;51.62
69245;BME280;56357;52.304;4.870;2024-01-30T04:08:54;102625.06;;;18.29;51.15
69245;BME280;56357;52.304;4.870;2024-01-30T04:11:20;102623.25;;;18.35;51.11
69245;BME280;56357;52.304;4.870;2024-01-30T04:13:47;102633.09;;;18.44;51.06
69245;BME280;56357;52.304;4.870;2024-01-30T04:16:21;102638.91;;;18.12;51.57
69245;BME280;56357;52.304;4.870;2024-01-30T04:18:48;102640.16;;;18.16;51.02
69245;BME280;56357;52.304;4.870;2024-01-30T04:21:14;102642.31;;;18.33;51.15
69245;BME280;56357;52.304;4.870;2024-01-30T04:23:41;102640.09;;;18.35;51.18
69245;BME280;56357;52.304;4.870;2024-01-30T04:26:08;102642.16;;;18.27;51.31
69245;BME280;56357;52.304;4.870;2024-01-30T04:28:34;102637.69;;;18.08;52.00
69245;BME280;56357;52.304;4.870;2024-01-30T04:31:00;102636.91;;;18.31;51.40
69245;BME280;56357;52.304;4.870;2024-01-30T04:33:27;102636.56;;;18.39;50.97
69245;BME280;56357;52.304;4.870;2024-01-30T04:35:53;102630.31;;;18.25;51.50
69245;BME280;56357;52.304;4.870;2024-01-30T04:38:19;102630.72;;;18.41;51.62
69245;BME280;56357;52.304;4.870;2024-01-30T04:40:46;102629.09;;;18.33;51.15
69245;BME280;56357;52.304;4.870;2024-01-30T04:43:12;102619.38;;;18.36;51.18
69245;BME280;56357;52.304;4.870;2024-01-30T04:45:39;102618.56;;;18.47;51.08
69245;BME280;56357;52.304;4.870;2024-01-30T04:48:06;102616.69;;;18.41;51.16
69245;BME280;56357;52.304;4.870;2024-01-30T04:50:32;102615.25;;;18.38;51.80
69245;BME280;56357;52.304;4.870;2024-01-30T04:52:59;102611.03;;;18.29;51.37
69245;BME280;56357;52.304;4.870;2024-01-30T04:55:25;102606.72;;;18.45;51.10
69245;BME280;56357;52.304;4.870;2024-01-30T04:57:51;102600.28;;;18.44;50.99
69245;BME280;56357;52.304;4.870;2024-01-30T05:00:18;102606.13;;;18.43;51.07
69245;BME280;56357;52.304;4.870;2024-01-30T05:02:44;102597.03;;;18.41;51.16
69245;BME280;56357;52.304;4.870;2024-01-30T05:05:11;102590.81;;;18.39;50.92
69245;BME280;56357;52.304;4.870;2024-01-30T05:07:39;102610.75;;;18.07;52.13
69245;BME280;56357;52.304;4.870;2024-01-30T05:10:05;102601.81;;;18.28;51.62
69245;BME280;56357;52.304;4.870;2024-01-30T05:12:32;102608.28;;;18.41;51.24
69245;BME280;56357;52.304;4.870;2024-01-30T05:14:58;102600.34;;;18.38;51.47
69245;BME280;56357;52.304;4.870;2024-01-30T05:17:24;102599.28;;;18.50;51.84
69245;BME280;56357;52.304;4.870;2024-01-30T05:19:50;102603.16;;;18.38;51.63
69245;BME280;56357;52.304;4.870;2024-01-30T05:22:17;102597.97;;;18.53;50.29
69245;BME280;56357;52.304;4.870;2024-01-30T05:24:44;102606.91;;;18.32;51.54
69245;BME280;56357;52.304;4.870;2024-01-30T05:27:10;102600.97;;;18.40;50.86
69245;BME280;56357;52.304;4.870;2024-01-30T05:29:38;102610.41;;;18.57;51.01
69245;BME280;56357;52.304;4.870;2024-01-30T05:32:05;102604.53;;;18.47;50.88
69245;BME280;56357;52.304;4.870;2024-01-30T05:34:31;102611.72;;;18.43;51.50
69245;BME280;56357;52.304;4.870;2024-01-30T05:36:58;102614.53;;;18.43;51.40
69245;BME280;56357;52.304;4.870;2024-01-30T05:39:24;102610.47;;;18.39;51.45
69245;BME280;56357;52.304;4.870;2024-01-30T05:41:51;102610.84;;;18.31;51.84
69245;BME280;56357;52.304;4.870;2024-01-30T05:44:17;102609.97;;;18.30;51.71
69245;BME280;56357;52.304;4.870;2024-01-30T05:46:43;102609.53;;;18.45;51.15
69245;BME280;56357;52.304;4.870;2024-01-30T05:49:10;102613.72;;;18.54;51.19
69245;BME280;56357;52.304;4.870;2024-01-30T05:51:36;102609.53;;;18.45;50.96
69245;BME280;56357;52.304;4.870;2024-01-30T05:54:02;102614.75;;;18.41;51.36
69245;BME280;56357;52.304;4.870;2024-01-30T05:56:29;102618.84;;;18.57;51.11
69245;BME280;56357;52.304;4.870;2024-01-30T05:58:55;102610.75;;;18.49;51.10
69245;BME280;56357;52.304;4.870;2024-01-30T06:01:22;102603.31;;;18.54;51.26
69245;BME280;56357;52.304;4.870;2024-01-30T06:03:48;102605.31;;;18.65;50.79
69245;BME280;56357;52.304;4.870;2024-01-30T06:06:15;102597.03;;;18.70;50.50
69245;BME280;56357;52.304;4.870;2024-01-30T06:08:41;102596.06;;;18.35;51.17
69245;BME280;56357;52.304;4.870;2024-01-30T06:11:10;102594.69;;;18.67;51.13
69245;BME280;56357;52.304;4.870;2024-01-30T06:13:37;102597.00;;;18.59;51.34
69245;BME280;56357;52.304;4.870;2024-01-30T06:16:03;102595.97;;;18.42;51.72
69245;BME280;56357;52.304;4.870;2024-01-30T06:18:31;102603.69;;;18.58;51.52
69245;BME280;56357;52.304;4.870;2024-01-30T06:20:57;102611.13;;;18.52;51.90
69245;BME280;56357;52.304;4.870;2024-01-30T06:23:23;102627.75;;;18.54;51.97
69245;BME280;56357;52.304;4.870;2024-01-30T06:25:50;102621.75;;;18.50;52.17
69245;BME280;56357;52.304;4.870;2024-01-30T06:28:16;102617.38;;;18.77;51.65
69245;BME280;56357;52.304;4.870;2024-01-30T06:30:42;102614.59;;;18.77;51.87
69245;BME280;56357;52.304;4.870;2024-01-30T06:33:11;102614.59;;;18.89;51.82
69245;BME280;56357;52.304;4.870;2024-01-30T06:35:38;102613.25;;;19.03;51.61
69245;BME280;56357;52.304;4.870;2024-01-30T06:38:05;102614.47;;;18.84;52.30
69245;BME280;56357;52.304;4.870;2024-01-30T06:40:32;102609.09;;;18.71;52.56
69245;BME280;56357;52.304;4.870;2024-01-30T06:42:58;102618.50;;;18.88;52.27
69245;BME280;56357;52.304;4.870;2024-01-30T06:45:24;102611.91;;;18.71;52.59
69245;BME280;56357;52.304;4.870;2024-01-30T06:47:51;102616.31;;;18.78;52.95
69245;BME280;56357;52.304;4.870;2024-01-30T06:50:17;102602.63;;;18.93;52.33
69245;BME280;56357;52.304;4.870;2024-01-30T06:52:43;102616.91;;;18.69;53.39
69245;BME280;56357;52.304;4.870;2024-01-30T06:55:10;102621.28;;;18.53;53.66
69245;BME280;56357;52.304;4.870;2024-01-30T06:57:36;102617.75;;;18.69;53.13
69245;BME280;56357;52.304;4.870;2024-01-30T07:00:03;102618.66;;;18.40;53.32
69245;BME280;56357;52.304;4.870;2024-01-30T07:02:29;102616.56;;;18.36;53.17
69245;BME280;56357;52.304;4.870;2024-01-30T07:04:55;102619.69;;;18.46;53.02
69245;BME280;56357;52.304;4.870;2024-01-30T07:07:22;102625.69;;;18.61;52.81
69245;BME280;56357;52.304;4.870;2024-01-30T07:09:48;102621.06;;;18.37;53.34
69245;BME280;56357;52.304;4.870;2024-01-30T07:12:17;102625.53;;;18.44;53.50
69245;BME280;56357;52.304;4.870;2024-01-30T07:14:44;102633.22;;;18.49;52.78
69245;BME280;56357;52.304;4.870;2024-01-30T07:17:10;102621.69;;;18.39;53.02
69245;BME280;56357;52.304;4.870;2024-01-30T07:19:36;102629.19;;;18.56;52.92
69245;BME280;56357;52.304;4.870;2024-01-30T07:22:03;102631.75;;;18.58;53.09
69245;BME280;56357;52.304;4.870;2024-01-30T07:24:29;102642.50;;;18.49;53.21
69245;BME280;56357;52.304;4.870;2024-01-30T07:26:56;102652.78;;;18.67;52.83
69245;BME280;56357;52.304;4.870;2024-01-30T07:29:22;102640.63;;;18.96;51.48
69245;BME280;56357;52.304;4.870;2024-01-30T07:31:48;102641.66;;;18.60;52.18
69245;BME280;56357;52.304;4.870;2024-01-30T07:34:15;102654.41;;;18.45;53.50
69245;BME280;56357;52.304;4.870;2024-01-30T07:36:41;102646.44;;;18.94;51.64
69245;BME280;56357;52.304;4.870;2024-01-30T07:39:08;102645.63;;;18.94;51.55
69245;BME280;56357;52.304;4.870;2024-01-30T07:41:35;102646.84;;;18.86;51.89
69245;BME280;56357;52.304;4.870;2024-01-30T07:44:02;102648.19;;;19.07;51.42
69245;BME280;56357;52.304;4.870;2024-01-30T07:46:29;102645.22;;;19.02;51.24
69245;BME280;56357;52.304;4.870;2024-01-30T07:48:55;102657.69;;;19.06;51.72
69245;BME280;56357;52.304;4.870;2024-01-30T07:51:22;102659.25;;;18.90;51.65
69245;BME280;56357;52.304;4.870;2024-01-30T07:53:54;102661.44;;;18.88;52.02
69245;BME280;56357;52.304;4.870;2024-01-30T07:56:24;102661.59;;;19.05;51.57
69245;BME280;56357;52.304;4.870;2024-01-30T07:58:50;102661.59;;;18.82;52.03
69245;BME280;56357;52.304;4.870;2024-01-30T08:01:16;102657.69;;;19.06;51.46
69245;BME280;56357;52.304;4.870;2024-01-30T08:03:43;102666.00;;;19.01;51.35
69245;BME280;56357;52.304;4.870;2024-01-30T08:06:09;102673.72;;;19.05;51.45
69245;BME280;56357;52.304;4.870;2024-01-30T08:08:36;102661.59;;;19.05;51.64
69245;BME280;56357;52.304;4.870;2024-01-30T08:11:03;102667.47;;;19.03;51.59
69245;BME280;56357;52.304;4.870;2024-01-30T08:13:29;102673.72;;;19.17;51.45
69245;BME280;56357;52.304;4.870;2024-01-30T08:15:55;102673.22;;;19.08;51.46
69245;BME280;56357;52.304;4.870;2024-01-30T08:18:22;102676.97;;;19.02;51.37
69245;BME280;56357;52.304;4.870;2024-01-30T08:20:48;102665.03;;;18.95;51.60
69245;BME280;56357;52.304;4.870;2024-01-30T08:23:15;102672.69;;;19.00;51.61
69245;BME280;56357;52.304;4.870;2024-01-30T08:25:41;102683.19;;;18.81;52.11
69245;BME280;56357;52.304;4.870;2024-01-30T08:28:07;102681.09;;;18.65;52.33
69245;BME280;56357;52.304;4.870;2024-01-30T08:30:34;102688.94;;;18.75;52.11
69245;BME280;56357;52.304;4.870;2024-01-30T08:33:00;102677.91;;;18.73;52.11
69245;BME280;56357;52.304;4.870;2024-01-30T08:35:27;102679.50;;;18.81;51.58
69245;BME280;56357;52.304;4.870;2024-01-30T08:37:53;102680.25;;;18.76;52.08
69245;BME280;56357;52.304;4.870;2024-01-30T08:40:20;102678.91;;;18.79;51.58
69245;BME280;56357;52.304;4.870;2024-01-30T08:42:46;102678.38;;;18.59;52.44
69245;BME280;56357;52.304;4.870;2024-01-30T08:45:13;102687.13;;;18.51;52.72
69245;BME280;56357;52.304;4.870;2024-01-30T08:47:40;102687.88;;;18.58;52.29
69245;BME280;56357;52.304;4.870;2024-01-30T08:50:07;102694.63;;;18.68;51.89
69245;BME280;56357;52.304;4.870;2024-01-30T08:52:33;102700.63;;;18.72;52.10
69245;BME280;56357;52.304;4.870;2024-01-30T08:55:00;102695.84;;;18.61;52.16
69245;BME280;56357;52.304;4.870;2024-01-30T08:57:27;102704.97;;;18.56;52.46
69245;BME280;56357;52.304;4.870;2024-01-30T08:59:54;102710.47;;;18.63;52.29
69245;BME280;56357;52.304;4.870;2024-01-30T09:02:20;102699.78;;;18.83;51.42
69245;BME280;56357;52.304;4.870;2024-01-30T09:04:47;102695.13;;;18.65;52.16
69245;BME280;56357;52.304;4.870;2024-01-30T09:07:13;102691.00;;;18.79;51.99
69245;BME280;56357;52.304;4.870;2024-01-30T09:09:40;102701.56;;;18.66;52.02
69245;BME280;56357;52.304;4.870;2024-01-30T09:12:07;102694.84;;;18.55;52.18
69245;BME280;56357;52.304;4.870;2024-01-30T09:14:38;102704.31;;;18.43;52.54
69245;BME280;56357;52.304;4.870;2024-01-30T09:17:05;102704.09;;;18.44;52.40
69245;BME280;56357;52.304;4.870;2024-01-30T09:19:31;102710.56;;;18.26;53.04
69245;BME280;56357;52.304;4.870;2024-01-30T09:21:58;102709.38;;;18.64;52.17
69245;BME280;56357;52.304;4.870;2024-01-30T09:24:25;102715.38;;;18.79;51.45
69245;BME280;56357;52.304;4.870;2024-01-30T09:26:52;102716.72;;;18.65;52.09
69245;BME280;56357;52.304;4.870;2024-01-30T09:29:18;102706.31;;;18.54;51.77
69245;BME280;56357;52.304;4.870;2024-01-30T09:31:46;102700.09;;;18.52;52.41
69245;BME280;56357;52.304;4.870;2024-01-30T09:34:13;102703.34;;;18.49;52.37
69245;BME280;56357;52.304;4.870;2024-01-30T09:36:40;102702.16;;;18.56;52.11
69245;BME280;56357;52.304;4.870;2024-01-30T09:39:06;102705.22;;;18.55;52.24
69245;BME280;56357;52.304;4.870;2024-01-30T09:41:33;102715.94;;;18.58;52.13
69245;BME280;56357;52.304;4.870;2024-01-30T09:44:05;102712.44;;;18.33;52.61
69245;BME280;56357;52.304;4.870;2024-01-30T09:46:33;102720.31;;;18.42;52.60
69245;BME280;56357;52.304;4.870;2024-01-30T09:49:02;102727.38;;;18.26;52.66
69245;BME280;56357;52.304;4.870;2024-01-30T09:51:29;102725.66;;;18.44;52.59
69245;BME280;56357;52.304;4.870;2024-01-30T09:53:56;102736.25;;;18.23;52.90
69245;BME280;56357;52.304;4.870;2024-01-30T09:56:22;102736.78;;;18.50;52.19
69245;BME280;56357;52.304;4.870;2024-01-30T09:58:49;102750.97;;;18.37;52.12
69245;BME280;56357;52.304;4.870;2024-01-30T10:01:17;102749.47;;;18.35;52.63
69245;BME280;56357;52.304;4.870;2024-01-30T10:03:44;102745.22;;;18.32;52.72
69245;BME280;56357;52.304;4.870;2024-01-30T10:06:10;102730.94;;;18.34;53.06
69245;BME280;56357;52.304;4.870;2024-01-30T10:08:37;102733.38;;;18.30;52.83
69245;BME280;56357;52.304;4.870;2024-01-30T10:11:04;102767.72;;;18.25;53.01
69245;BME280;56357;52.304;4.870;2024-01-30T10:13:30;102756.81;;;18.36;52.29
69245;BME280;56357;52.304;4.870;2024-01-30T10:15:56;102757.88;;;18.23;52.57
69245;BME280;56357;52.304;4.870;2024-01-30T10:18:23;102752.66;;;18.08;52.88
69245;BME280;56357;52.304;4.870;2024-01-30T10:20:49;102766.91;;;18.07;53.25
69245;BME280;56357;52.304;4.870;2024-01-30T10:23:16;102762.75;;;18.27;52.39
69245;BME280;56357;52.304;4.870;2024-01-30T10:25:42;102781.44;;;18.15;52.71
69245;BME280;56357;52.304;4.870;2024-01-30T10:28:09;102766.22;;;18.11;53.01
69245;BME280;56357;52.304;4.870;2024-01-30T10:30:35;102776.19;;;18.07;53.03
69245;BME280;56357;52.304;4.870;2024-01-30T10:33:02;102770.22;;;18.15;52.90
69245;BME280;56357;52.304;4.870;2024-01-30T10:35:28;102769.16;;;18.16;53.09
69245;BME280;56357;52.304;4.870;2024-01-30T10:37:56;102771.19;;;18.09;52.57
69245;BME280;56357;52.304;4.870;2024-01-30T10:40:27;102767.66;;;18.14;52.60
69245;BME280;56357;52.304;4.870;2024-01-30T10:42:55;102785.22;;;18.09;52.74
69245;BME280;56357;52.304;4.870;2024-01-30T10:45:22;102777.25;;;18.06;52.97
69245;BME280;56357;52.304;4.870;2024-01-30T10:47:50;102782.09;;;17.99;53.12
69245;BME280;56357;52.304;4.870;2024-01-30T10:50:16;102778.66;;;17.97;53.42
69245;BME280;56357;52.304;4.870;2024-01-30T10:52:43;102790.41;;;18.06;52.86
69245;BME280;56357;52.304;4.870;2024-01-30T10:55:09;102779.75;;;17.96;53.21
69245;BME280;56357;52.304;4.870;2024-01-30T10:57:36;102788.56;;;18.00;52.90
69245;BME280;56357;52.304;4.870;2024-01-30T11:00:10;102792.53;;;18.10;53.00
69245;BME280;56357;52.304;4.870;2024-01-30T11:02:40;102791.28;;;18.06;52.89
69245;BME280;56357;52.304;4.870;2024-01-30T11:05:07;102788.84;;;18.10;52.56
69245;BME280;56357;52.304;4.870;2024-01-30T11:07:34;102790.88;;;18.03;52.97
69245;BME280;56357;52.304;4.870;2024-01-30T11:10:03;102789.63;;;17.99;52.73
69245;BME280;56357;52.304;4.870;2024-01-30T11:12:31;102797.38;;;18.03;52.78
69245;BME280;56357;52.304;4.870;2024-01-30T11:15:15;102788.09;;;18.03;52.90
69245;BME280;56357;52.304;4.870;2024-01-30T11:17:51;102791.13;;;18.01;52.85
69245;BME280;56357;52.304;4.870;2024-01-30T11:20:30;102786.78;;;18.05;52.72
69245;BME280;56357;52.304;4.870;2024-01-30T11:22:58;102797.25;;;18.10;52.25
69245;BME280;56357;52.304;4.870;2024-01-30T11:25:25;102798.75;;;17.94;52.67
69245;BME280;56357;52.304;4.870;2024-01-30T11:27:55;102799.84;;;17.93;53.14
69245;BME280;56357;52.304;4.870;2024-01-30T11:30:25;102801.72;;;17.99;52.65
69245;BME280;56357;52.304;4.870;2024-01-30T11:35:34;102800.91;;;17.92;52.68
69245;BME280;56357;52.304;4.870;2024-01-30T11:38:02;102805.59;;;17.98;52.63
69245;BME280;56357;52.304;4.870;2024-01-30T11:40:29;102804.28;;;18.01;52.64
69245;BME280;56357;52.304;4.870;2024-01-30T11:42:56;102806.47;;;17.99;52.56
69245;BME280;56357;52.304;4.870;2024-01-30T11:45:24;102802.16;;;17.96;52.68
69245;BME280;56357;52.304;4.870;2024-01-30T11:47:50;102805.53;;;18.05;52.13
69245;BME280;56357;52.304;4.870;2024-01-30T11:50:17;102797.88;;;18.12;51.81
69245;BME280;56357;52.304;4.870;2024-01-30T11:52:43;102799.94;;;18.05;52.17
69245;BME280;56357;52.304;4.870;2024-01-30T11:55:10;102797.81;;;18.00;52.25
69245;BME280;56357;52.304;4.870;2024-01-30T11:57:36;102800.22;;;17.97;52.41
69245;BME280;56357;52.304;4.870;2024-01-30T12:00:04;102798.69;;;18.01;52.12
69245;BME280;56357;52.304;4.870;2024-01-30T12:02:35;102800.31;;;18.08;51.98
69245;BME280;56357;52.304;4.870;2024-01-30T12:05:06;102798.28;;;17.97;52.37
69245;BME280;56357;52.304;4.870;2024-01-30T12:07:36;102800.78;;;18.05;52.24
69245;BME280;56357;52.304;4.870;2024-01-30T12:10:02;102809.31;;;17.92;52.58
69245;BME280;56357;52.304;4.870;2024-01-30T12:12:30;102806.69;;;17.97;52.47
69245;BME280;56357;52.304;4.870;2024-01-30T12:14:57;102797.81;;;18.00;52.07
69245;BME280;56357;52.304;4.870;2024-01-30T12:17:28;102811.69;;;17.95;52.16
69245;BME280;56357;52.304;4.870;2024-01-30T12:20:12;102808.34;;;18.05;51.83
69245;BME280;56357;52.304;4.870;2024-01-30T12:22:41;102806.84;;;18.02;52.05
69245;BME280;56357;52.304;4.870;2024-01-30T12:25:11;102819.00;;;17.96;52.44
69245;BME280;56357;52.304;4.870;2024-01-30T12:27:39;102810.75;;;18.01;52.13
69245;BME280;56357;52.304;4.870;2024-01-30T12:30:10;102813.56;;;18.01;52.00
69245;BME280;56357;52.304;4.870;2024-01-30T12:32:41;102826.56;;;17.96;52.42
69245;BME280;56357;52.304;4.870;2024-01-30T12:35:18;102818.53;;;17.99;52.02
69245;BME280;56357;52.304;4.870;2024-01-30T12:37:46;102828.34;;;18.08;51.95
69245;BME280;56357;52.304;4.870;2024-01-30T12:40:16;102822.97;;;18.07;51.94
69245;BME280;56357;52.304;4.870;2024-01-30T12:42:46;102827.19;;;17.98;51.99
69245;BME280;56357;52.304;4.870;2024-01-30T12:45:14;102830.44;;;17.95;52.01
69245;BME280;56357;52.304;4.870;2024-01-30T12:47:41;102833.63;;;17.98;52.25
69245;BME280;56357;52.304;4.870;2024-01-30T12:50:08;102828.94;;;17.92;52.15
69245;BME280;56357;52.304;4.870;2024-01-30T12:52:35;102829.13;;;17.97;51.92